sensor_id;sensor_type;location;lat;lon;timestamp;temperature;humidity
41310;DHT22;27057;51.438;-0.010;2023-04-25T00:01:49;7.00;99.90
41310;DHT22;27057;51.438;-0.010;2023-04-25T00:04:18;7.00;99.90
41310;DHT22;27057;51.438;-0.010;2023-04-25T00:06:47;6.90;99.90
41310;DHT22;27057;51.438;-0.010;2023-04-25T00:09:14;9.30;99.90
41310;DHT22;27057;51.438;-0.010;2023-04-25T00:11:42;6.70;99.90
41310;DHT22;27057;51.438;-0.010;2023-04-25T00:16:37;6.80;99.90
41310;DHT22;27057;51.438;-0.010;2023-04-25T00:19:04;6.90;99.90
41310;DHT22;27057;51.438;-0.010;2023-04-25T00:21:32;6.80;99.90
41310;DHT22;27057;51.438;-0.010;2023-04-25T00:23:59;6.80;99.90
41310;DHT22;27057;51.438;-0.010;2023-04-25T00:26:27;6.60;99.90
41310;DHT22;27057;51.438;-0.010;2023-04-25T00:28:54;6.60;99.90
41310;DHT22;27057;51.438;-0.010;2023-04-25T00:31:22;6.90;99.90
41310;DHT22;27057;51.438;-0.010;2023-04-25T00:33:51;6.50;99.90
41310;DHT22;27057;51.438;-0.010;2023-04-25T00:36:21;6.50;99.90
41310;DHT22;27057;51.438;-0.010;2023-04-25T00:38:48;6.50;99.90
41310;DHT22;27057;51.438;-0.010;2023-04-25T00:41:16;7.00;99.90
41310;DHT22;27057;51.438;-0.010;2023-04-25T00:43:44;6.40;99.90
41310;DHT22;27057;51.438;-0.010;2023-04-25T00:46:12;6.30;99.90
41310;DHT22;27057;51.438;-0.010;2023-04-25T00:51:09;6.10;99.90
41310;DHT22;27057;51.438;-0.010;2023-04-25T00:53:40;6.00;99.90
41310;DHT22;27057;51.438;-0.010;2023-04-25T00:56:08;6.00;99.90
41310;DHT22;27057;51.438;-0.010;2023-04-25T00:58:36;6.60;99.90
41310;DHT22;27057;51.438;-0.010;2023-04-25T01:01:04;6.20;99.90
41310;DHT22;27057;51.438;-0.010;2023-04-25T01:03:34;5.80;99.90
41310;DHT22;27057;51.438;-0.010;2023-04-25T01:06:09;5.60;99.90
41310;DHT22;27057;51.438;-0.010;2023-04-25T01:08:38;5.60;99.90
41310;DHT22;27057;51.438;-0.010;2023-04-25T01:11:06;5.60;99.90
41310;DHT22;27057;51.438;-0.010;2023-04-25T01:13:34;6.80;99.90
41310;DHT22;27057;51.438;-0.010;2023-04-25T01:16:02;5.70;99.90
41310;DHT22;27057;51.438;-0.010;2023-04-25T01:18:30;5.60;99.90
41310;DHT22;27057;51.438;-0.010;2023-04-25T01:21:07;5.90;99.90
41310;DHT22;27057;51.438;-0.010;2023-04-25T01:23:38;5.50;99.90
41310;DHT22;27057;51.438;-0.010;2023-04-25T01:26:07;5.40;99.90
41310;DHT22;27057;51.438;-0.010;2023-04-25T01:28:36;5.40;99.90
41310;DHT22;27057;51.438;-0.010;2023-04-25T01:31:04;5.40;99.90
41310;DHT22;27057;51.438;-0.010;2023-04-25T01:33:33;5.30;99.90
41310;DHT22;27057;51.438;-0.010;2023-04-25T01:36:00;5.70;99.90
41310;DHT22;27057;51.438;-0.010;2023-04-25T01:38:28;5.30;99.90
41310;DHT22;27057;51.438;-0.010;2023-04-25T01:40:56;5.30;99.90
41310;DHT22;27057;51.438;-0.010;2023-04-25T01:43:23;5.20;99.90
41310;DHT22;27057;51.438;-0.010;2023-04-25T01:45:51;5.90;99.90
41310;DHT22;27057;51.438;-0.010;2023-04-25T01:48:19;5.20;99.90
41310;DHT22;27057;51.438;-0.010;2023-04-25T01:53:15;5.00;99.90
41310;DHT22;27057;51.438;-0.010;2023-04-25T01:55:44;6.60;99.90
41310;DHT22;27057;51.438;-0.010;2023-04-25T01:58:15;5.20;99.90
41310;DHT22;27057;51.438;-0.010;2023-04-25T02:01:20;6.10;99.90
41310;DHT22;27057;51.438;-0.010;2023-04-25T02:04:03;5.30;99.90
41310;DHT22;27057;51.438;-0.010;2023-04-25T02:06:35;5.10;99.90
41310;DHT22;27057;51.438;-0.010;2023-04-25T02:09:02;5.10;99.90
41310;DHT22;27057;51.438;-0.010;2023-04-25T02:11:30;5.00;99.90
41310;DHT22;27057;51.438;-0.010;2023-04-25T02:14:16;5.10;99.90
41310;DHT22;27057;51.438;-0.010;2023-04-25T02:16:50;5.00;99.90
41310;DHT22;27057;51.438;-0.010;2023-04-25T02:19:18;4.90;99.90
41310;DHT22;27057;51.438;-0.010;2023-04-25T02:21:47;5.00;99.90
41310;DHT22;27057;51.438;-0.010;2023-04-25T02:26:41;4.90;99.90
41310;DHT22;27057;51.438;-0.010;2023-04-25T02:29:09;5.60;99.90
41310;DHT22;27057;51.438;-0.010;2023-04-25T02:31:37;4.90;99.90
41310;DHT22;27057;51.438;-0.010;2023-04-25T02:34:04;4.80;99.90
41310;DHT22;27057;51.438;-0.010;2023-04-25T02:36:35;4.70;99.90
41310;DHT22;27057;51.438;-0.010;2023-04-25T02:39:02;4.70;99.90
41310;DHT22;27057;51.438;-0.010;2023-04-25T02:41:30;4.60;99.90
41310;DHT22;27057;51.438;-0.010;2023-04-25T02:43:57;4.60;99.90
41310;DHT22;27057;51.438;-0.010;2023-04-25T02:46:25;4.70;99.90
41310;DHT22;27057;51.438;-0.010;2023-04-25T02:49:06;4.60;99.90
41310;DHT22;27057;51.438;-0.010;2023-04-25T02:51:35;4.40;99.90
41310;DHT22;27057;51.438;-0.010;2023-04-25T02:54:04;5.90;99.90
41310;DHT22;27057;51.438;-0.010;2023-04-25T02:56:36;4.60;99.90
41310;DHT22;27057;51.438;-0.010;2023-04-25T02:59:07;4.70;99.90
41310;DHT22;27057;51.438;-0.010;2023-04-25T03:01:35;4.50;99.90
41310;DHT22;27057;51.438;-0.010;2023-04-25T03:04:02;4.60;99.90
41310;DHT22;27057;51.438;-0.010;2023-04-25T03:06:30;4.50;99.90
41310;DHT22;27057;51.438;-0.010;2023-04-25T03:11:26;4.60;99.90
41310;DHT22;27057;51.438;-0.010;2023-04-25T03:13:53;5.30;99.90
41310;DHT22;27057;51.438;-0.010;2023-04-25T03:16:22;4.20;99.90
41310;DHT22;27057;51.438;-0.010;2023-04-25T03:18:49;5.00;99.90
41310;DHT22;27057;51.438;-0.010;2023-04-25T03:21:17;4.70;99.90
41310;DHT22;27057;51.438;-0.010;2023-04-25T03:23:45;4.60;99.90
41310;DHT22;27057;51.438;-0.010;2023-04-25T03:26:12;4.50;99.90
41310;DHT22;27057;51.438;-0.010;2023-04-25T03:28:40;4.10;99.90
41310;DHT22;27057;51.438;-0.010;2023-04-25T03:31:07;4.40;99.90
41310;DHT22;27057;51.438;-0.010;2023-04-25T03:33:35;4.30;99.90
41310;DHT22;27057;51.438;-0.010;2023-04-25T03:36:02;4.40;99.90
41310;DHT22;27057;51.438;-0.010;2023-04-25T03:38:30;4.30;99.90
41310;DHT22;27057;51.438;-0.010;2023-04-25T03:40:58;4.80;99.90
41310;DHT22;27057;51.438;-0.010;2023-04-25T03:43:38;4.40;99.90
41310;DHT22;27057;51.438;-0.010;2023-04-25T03:48:39;4.20;99.90
41310;DHT22;27057;51.438;-0.010;2023-04-25T03:51:08;4.90;99.90
41310;DHT22;27057;51.438;-0.010;2023-04-25T03:53:39;4.40;99.90
41310;DHT22;27057;51.438;-0.010;2023-04-25T03:56:18;3.90;99.90
41310;DHT22;27057;51.438;-0.010;2023-04-25T03:58:48;4.10;99.90
41310;DHT22;27057;51.438;-0.010;2023-04-25T04:01:18;4.20;99.90
41310;DHT22;27057;51.438;-0.010;2023-04-25T04:03:45;4.20;99.90
41310;DHT22;27057;51.438;-0.010;2023-04-25T04:06:13;4.20;99.90
41310;DHT22;27057;51.438;-0.010;2023-04-25T04:11:11;4.20;99.90
41310;DHT22;27057;51.438;-0.010;2023-04-25T04:13:39;4.40;99.90
41310;DHT22;27057;51.438;-0.010;2023-04-25T04:16:07;4.30;99.90
41310;DHT22;27057;51.438;-0.010;2023-04-25T04:18:35;4.10;99.90
41310;DHT22;27057;51.438;-0.010;2023-04-25T04:21:03;4.30;99.90
41310;DHT22;27057;51.438;-0.010;2023-04-25T04:23:34;4.30;99.90
41310;DHT22;27057;51.438;-0.010;2023-04-25T04:26:06;5.30;99.90
41310;DHT22;27057;51.438;-0.010;2023-04-25T04:28:40;5.20;99.90
41310;DHT22;27057;51.438;-0.010;2023-04-25T04:31:34;4.00;99.90
41310;DHT22;27057;51.438;-0.010;2023-04-25T04:34:01;4.00;99.90
41310;DHT22;27057;51.438;-0.010;2023-04-25T04:36:30;4.00;99.90
41310;DHT22;27057;51.438;-0.010;2023-04-25T04:38:58;4.10;99.90
41310;DHT22;27057;51.438;-0.010;2023-04-25T04:41:34;4.00;99.90
41310;DHT22;27057;51.438;-0.010;2023-04-25T04:46:53;4.00;99.90
41310;DHT22;27057;51.438;-0.010;2023-04-25T04:49:46;4.00;99.90
41310;DHT22;27057;51.438;-0.010;2023-04-25T04:52:38;4.00;99.90
41310;DHT22;27057;51.438;-0.010;2023-04-25T04:55:31;3.90;99.90
41310;DHT22;27057;51.438;-0.010;2023-04-25T04:58:07;4.00;99.90
41310;DHT22;27057;51.438;-0.010;2023-04-25T05:00:51;3.90;99.90
41310;DHT22;27057;51.438;-0.010;2023-04-25T05:03:32;4.10;99.90
41310;DHT22;27057;51.438;-0.010;2023-04-25T05:06:20;4.10;99.90
41310;DHT22;27057;51.438;-0.010;2023-04-25T05:09:10;3.90;99.90
41310;DHT22;27057;51.438;-0.010;2023-04-25T05:12:02;3.90;99.90
41310;DHT22;27057;51.438;-0.010;2023-04-25T05:14:49;3.80;99.90
41310;DHT22;27057;51.438;-0.010;2023-04-25T05:17:49;3.90;99.90
41310;DHT22;27057;51.438;-0.010;2023-04-25T05:20:19;3.80;99.90
41310;DHT22;27057;51.438;-0.010;2023-04-25T05:23:01;4.00;99.90
41310;DHT22;27057;51.438;-0.010;2023-04-25T05:25:54;3.80;99.90
41310;DHT22;27057;51.438;-0.010;2023-04-25T05:31:19;4.00;99.90
41310;DHT22;27057;51.438;-0.010;2023-04-25T05:33:56;3.80;99.90
41310;DHT22;27057;51.438;-0.010;2023-04-25T05:36:28;4.00;99.90
41310;DHT22;27057;51.438;-0.010;2023-04-25T05:38:55;5.30;99.90
41310;DHT22;27057;51.438;-0.010;2023-04-25T05:41:49;6.10;99.90
41310;DHT22;27057;51.438;-0.010;2023-04-25T05:44:43;4.10;99.90
41310;DHT22;27057;51.438;-0.010;2023-04-25T05:47:29;4.70;99.90
41310;DHT22;27057;51.438;-0.010;2023-04-25T05:50:07;4.20;99.90
41310;DHT22;27057;51.438;-0.010;2023-04-25T05:52:54;4.30;99.90
41310;DHT22;27057;51.438;-0.010;2023-04-25T05:55:34;4.20;99.90
41310;DHT22;27057;51.438;-0.010;2023-04-25T05:58:15;4.40;99.90
41310;DHT22;27057;51.438;-0.010;2023-04-25T06:03:12;4.60;99.90
41310;DHT22;27057;51.438;-0.010;2023-04-25T06:05:45;4.80;99.90
41310;DHT22;27057;51.438;-0.010;2023-04-25T06:08:13;4.60;99.90
41310;DHT22;27057;51.438;-0.010;2023-04-25T06:10:42;4.60;99.90
41310;DHT22;27057;51.438;-0.010;2023-04-25T06:13:10;4.40;99.90
41310;DHT22;27057;51.438;-0.010;2023-04-25T06:15:37;4.60;99.90
41310;DHT22;27057;51.438;-0.010;2023-04-25T06:18:05;4.60;99.90
41310;DHT22;27057;51.438;-0.010;2023-04-25T06:20:33;4.70;99.90
41310;DHT22;27057;51.438;-0.010;2023-04-25T06:23:01;5.20;99.90
41310;DHT22;27057;51.438;-0.010;2023-04-25T06:25:40;4.80;99.90
41310;DHT22;27057;51.438;-0.010;2023-04-25T06:28:08;5.00;99.90
41310;DHT22;27057;51.438;-0.010;2023-04-25T06:30:36;4.70;99.90
41310;DHT22;27057;51.438;-0.010;2023-04-25T06:33:08;5.10;99.90
41310;DHT22;27057;51.438;-0.010;2023-04-25T06:35:36;5.00;99.90
41310;DHT22;27057;51.438;-0.010;2023-04-25T06:38:06;4.90;99.90
41310;DHT22;27057;51.438;-0.010;2023-04-25T06:40:35;5.10;99.90
41310;DHT22;27057;51.438;-0.010;2023-04-25T06:43:03;5.10;99.90
41310;DHT22;27057;51.438;-0.010;2023-04-25T06:45:56;5.20;99.90
41310;DHT22;27057;51.438;-0.010;2023-04-25T06:48:27;5.20;99.90
41310;DHT22;27057;51.438;-0.010;2023-04-25T06:50:55;5.40;99.90
41310;DHT22;27057;51.438;-0.010;2023-04-25T06:53:24;7.50;99.90
41310;DHT22;27057;51.438;-0.010;2023-04-25T06:55:57;5.40;99.90
41310;DHT22;27057;51.438;-0.010;2023-04-25T06:58:30;6.10;99.90
41310;DHT22;27057;51.438;-0.010;2023-04-25T07:03:38;5.40;99.90
41310;DHT22;27057;51.438;-0.010;2023-04-25T07:06:13;5.40;99.90
41310;DHT22;27057;51.438;-0.010;2023-04-25T07:08:41;5.40;99.90
41310;DHT22;27057;51.438;-0.010;2023-04-25T07:11:08;5.60;99.90
41310;DHT22;27057;51.438;-0.010;2023-04-25T07:16:05;5.70;99.90
41310;DHT22;27057;51.438;-0.010;2023-04-25T07:18:34;5.70;99.90
41310;DHT22;27057;51.438;-0.010;2023-04-25T07:21:03;5.70;99.90
41310;DHT22;27057;51.438;-0.010;2023-04-25T07:23:32;5.80;99.90
41310;DHT22;27057;51.438;-0.010;2023-04-25T07:26:03;5.90;99.90
41310;DHT22;27057;51.438;-0.010;2023-04-25T07:28:31;6.10;99.90
41310;DHT22;27057;51.438;-0.010;2023-04-25T07:30:58;6.00;99.90
41310;DHT22;27057;51.438;-0.010;2023-04-25T07:33:26;6.20;99.90
41310;DHT22;27057;51.438;-0.010;2023-04-25T07:35:54;6.00;99.90
41310;DHT22;27057;51.438;-0.010;2023-04-25T07:38:22;6.20;99.90
41310;DHT22;27057;51.438;-0.010;2023-04-25T07:40:50;6.20;99.90
41310;DHT22;27057;51.438;-0.010;2023-04-25T07:43:18;7.00;99.90
41310;DHT22;27057;51.438;-0.010;2023-04-25T07:45:55;6.30;99.90
41310;DHT22;27057;51.438;-0.010;2023-04-25T07:50:54;6.40;99.90
41310;DHT22;27057;51.438;-0.010;2023-04-25T07:53:21;6.70;99.90
41310;DHT22;27057;51.438;-0.010;2023-04-25T07:55:54;6.90;99.90
41310;DHT22;27057;51.438;-0.010;2023-04-25T07:58:22;6.30;99.90
41310;DHT22;27057;51.438;-0.010;2023-04-25T08:00:54;6.50;99.90
41310;DHT22;27057;51.438;-0.010;2023-04-25T08:03:41;6.60;99.90
41310;DHT22;27057;51.438;-0.010;2023-04-25T08:06:22;7.00;99.90
41310;DHT22;27057;51.438;-0.010;2023-04-25T08:09:06;7.20;99.90
41310;DHT22;27057;51.438;-0.010;2023-04-25T08:11:38;6.80;99.90
41310;DHT22;27057;51.438;-0.010;2023-04-25T08:14:08;6.70;99.90
41310;DHT22;27057;51.438;-0.010;2023-04-25T08:16:37;6.80;99.90
41310;DHT22;27057;51.438;-0.010;2023-04-25T08:19:05;7.80;99.90
41310;DHT22;27057;51.438;-0.010;2023-04-25T08:21:33;7.30;99.90
41310;DHT22;27057;51.438;-0.010;2023-04-25T08:24:04;7.00;99.90
41310;DHT22;27057;51.438;-0.010;2023-04-25T08:26:35;7.00;99.90
41310;DHT22;27057;51.438;-0.010;2023-04-25T08:29:05;7.80;99.90
41310;DHT22;27057;51.438;-0.010;2023-04-25T08:31:35;6.90;99.90
41310;DHT22;27057;51.438;-0.010;2023-04-25T08:34:04;7.10;99.90
41310;DHT22;27057;51.438;-0.010;2023-04-25T08:36:43;7.20;99.90
41310;DHT22;27057;51.438;-0.010;2023-04-25T08:39:38;7.40;99.90
41310;DHT22;27057;51.438;-0.010;2023-04-25T08:42:24;7.30;99.90
41310;DHT22;27057;51.438;-0.010;2023-04-25T08:44:54;7.50;99.90
41310;DHT22;27057;51.438;-0.010;2023-04-25T08:47:28;7.80;99.90
41310;DHT22;27057;51.438;-0.010;2023-04-25T08:49:58;8.00;99.90
41310;DHT22;27057;51.438;-0.010;2023-04-25T08:52:30;7.80;99.90
41310;DHT22;27057;51.438;-0.010;2023-04-25T08:55:00;7.70;99.90
41310;DHT22;27057;51.438;-0.010;2023-04-25T08:57:29;8.00;99.90
41310;DHT22;27057;51.438;-0.010;2023-04-25T08:59:58;9.40;99.90
41310;DHT22;27057;51.438;-0.010;2023-04-25T09:02:27;7.80;99.90
41310;DHT22;27057;51.438;-0.010;2023-04-25T09:04:55;8.00;99.90
41310;DHT22;27057;51.438;-0.010;2023-04-25T09:07:23;8.20;99.90
41310;DHT22;27057;51.438;-0.010;2023-04-25T09:09:54;8.10;99.90
41310;DHT22;27057;51.438;-0.010;2023-04-25T09:12:22;8.30;99.90
41310;DHT22;27057;51.438;-0.010;2023-04-25T09:15:05;9.60;99.90
41310;DHT22;27057;51.438;-0.010;2023-04-25T09:18:02;8.50;99.90
41310;DHT22;27057;51.438;-0.010;2023-04-25T09:20:42;8.30;99.90
41310;DHT22;27057;51.438;-0.010;2023-04-25T09:23:27;9.90;99.90
41310;DHT22;27057;51.438;-0.010;2023-04-25T09:25:55;8.80;99.90
41310;DHT22;27057;51.438;-0.010;2023-04-25T09:28:24;10.20;99.90
41310;DHT22;27057;51.438;-0.010;2023-04-25T09:30:57;10.00;99.90
41310;DHT22;27057;51.438;-0.010;2023-04-25T09:33:38;9.60;99.90
41310;DHT22;27057;51.438;-0.010;2023-04-25T09:36:08;9.40;99.90
41310;DHT22;27057;51.438;-0.010;2023-04-25T09:38:55;9.40;99.90
41310;DHT22;27057;51.438;-0.010;2023-04-25T09:41:29;11.10;99.90
41310;DHT22;27057;51.438;-0.010;2023-04-25T09:44:00;9.70;99.90
41310;DHT22;27057;51.438;-0.010;2023-04-25T09:46:35;9.80;99.90
41310;DHT22;27057;51.438;-0.010;2023-04-25T09:49:14;10.00;99.90
41310;DHT22;27057;51.438;-0.010;2023-04-25T09:51:59;10.00;99.90
41310;DHT22;27057;51.438;-0.010;2023-04-25T09:54:39;10.00;99.90
41310;DHT22;27057;51.438;-0.010;2023-04-25T09:57:21;9.70;99.90
41310;DHT22;27057;51.438;-0.010;2023-04-25T09:59:52;9.50;99.90
41310;DHT22;27057;51.438;-0.010;2023-04-25T10:02:21;10.00;99.90
41310;DHT22;27057;51.438;-0.010;2023-04-25T10:04:54;9.30;99.90
41310;DHT22;27057;51.438;-0.010;2023-04-25T10:07:30;9.40;99.90
41310;DHT22;27057;51.438;-0.010;2023-04-25T10:10:02;9.20;99.90
41310;DHT22;27057;51.438;-0.010;2023-04-25T10:12:32;9.70;99.90
41310;DHT22;27057;51.438;-0.010;2023-04-25T10:15:00;9.50;99.90
41310;DHT22;27057;51.438;-0.010;2023-04-25T10:19:57;9.60;99.90
41310;DHT22;27057;51.438;-0.010;2023-04-25T10:22:37;10.20;99.90
41310;DHT22;27057;51.438;-0.010;2023-04-25T10:25:06;10.10;99.90
41310;DHT22;27057;51.438;-0.010;2023-04-25T10:27:40;10.30;99.90
41310;DHT22;27057;51.438;-0.010;2023-04-25T10:30:10;11.30;99.90
41310;DHT22;27057;51.438;-0.010;2023-04-25T10:32:43;10.70;99.90
41310;DHT22;27057;51.438;-0.010;2023-04-25T10:35:15;10.80;99.90
41310;DHT22;27057;51.438;-0.010;2023-04-25T10:38:08;12.20;99.90
41310;DHT22;27057;51.438;-0.010;2023-04-25T10:40:36;11.40;99.90
41310;DHT22;27057;51.438;-0.010;2023-04-25T10:43:33;11.80;99.90
41310;DHT22;27057;51.438;-0.010;2023-04-25T10:46:02;12.30;99.90
41310;DHT22;27057;51.438;-0.010;2023-04-25T10:48:31;12.10;99.90
41310;DHT22;27057;51.438;-0.010;2023-04-25T10:51:15;12.00;99.90
41310;DHT22;27057;51.438;-0.010;2023-04-25T10:53:47;11.80;99.90
41310;DHT22;27057;51.438;-0.010;2023-04-25T10:56:27;12.50;99.90
41310;DHT22;27057;51.438;-0.010;2023-04-25T10:59:05;11.50;99.90
41310;DHT22;27057;51.438;-0.010;2023-04-25T11:04:05;12.40;99.90
41310;DHT22;27057;51.438;-0.010;2023-04-25T11:09:27;12.70;99.90
41310;DHT22;27057;51.438;-0.010;2023-04-25T11:11:58;12.90;99.90
41310;DHT22;27057;51.438;-0.010;2023-04-25T11:14:27;12.70;99.90
41310;DHT22;27057;51.438;-0.010;2023-04-25T11:16:57;12.60;99.90
41310;DHT22;27057;51.438;-0.010;2023-04-25T11:19:27;12.50;99.90
41310;DHT22;27057;51.438;-0.010;2023-04-25T11:21:56;12.40;99.90
41310;DHT22;27057;51.438;-0.010;2023-04-25T11:24:30;12.40;99.90
41310;DHT22;27057;51.438;-0.010;2023-04-25T11:26:59;12.30;99.90
41310;DHT22;27057;51.438;-0.010;2023-04-25T11:29:27;13.00;99.90
41310;DHT22;27057;51.438;-0.010;2023-04-25T11:31:54;13.50;99.90
41310;DHT22;27057;51.438;-0.010;2023-04-25T11:34:29;12.50;99.90
41310;DHT22;27057;51.438;-0.010;2023-04-25T11:36:59;12.40;99.90
41310;DHT22;27057;51.438;-0.010;2023-04-25T11:39:27;12.60;99.90
41310;DHT22;27057;51.438;-0.010;2023-04-25T11:41:55;12.60;99.90
41310;DHT22;27057;51.438;-0.010;2023-04-25T11:44:23;13.80;99.90
41310;DHT22;27057;51.438;-0.010;2023-04-25T11:46:50;13.20;99.90
41310;DHT22;27057;51.438;-0.010;2023-04-25T11:49:18;13.50;99.90
41310;DHT22;27057;51.438;-0.010;2023-04-25T11:51:47;13.50;99.90
41310;DHT22;27057;51.438;-0.010;2023-04-25T11:54:15;13.60;99.90
41310;DHT22;27057;51.438;-0.010;2023-04-25T11:56:44;13.90;99.90
41310;DHT22;27057;51.438;-0.010;2023-04-25T11:59:12;13.40;99.90
41310;DHT22;27057;51.438;-0.010;2023-04-25T12:01:41;13.00;99.90
41310;DHT22;27057;51.438;-0.010;2023-04-25T12:04:22;12.70;99.90
41310;DHT22;27057;51.438;-0.010;2023-04-25T12:06:52;12.60;99.90
41310;DHT22;27057;51.438;-0.010;2023-04-25T12:09:31;13.30;99.90
41310;DHT22;27057;51.438;-0.010;2023-04-25T12:12:00;13.80;99.90
41310;DHT22;27057;51.438;-0.010;2023-04-25T12:14:33;14.60;99.90
41310;DHT22;27057;51.438;-0.010;2023-04-25T12:17:03;15.00;99.90
41310;DHT22;27057;51.438;-0.010;2023-04-25T12:19:34;14.90;99.90
41310;DHT22;27057;51.438;-0.010;2023-04-25T12:22:02;14.60;99.90
41310;DHT22;27057;51.438;-0.010;2023-04-25T12:24:33;14.20;99.90
41310;DHT22;27057;51.438;-0.010;2023-04-25T12:27:07;14.10;99.90
41310;DHT22;27057;51.438;-0.010;2023-04-25T12:29:35;14.00;99.90
41310;DHT22;27057;51.438;-0.010;2023-04-25T12:32:16;13.60;99.90
41310;DHT22;27057;51.438;-0.010;2023-04-25T12:34:44;13.60;99.90
41310;DHT22;27057;51.438;-0.010;2023-04-25T12:37:12;13.70;99.90
41310;DHT22;27057;51.438;-0.010;2023-04-25T12:39:40;14.30;99.90
41310;DHT22;27057;51.438;-0.010;2023-04-25T12:42:08;14.20;99.90
41310;DHT22;27057;51.438;-0.010;2023-04-25T12:44:38;14.20;99.90
41310;DHT22;27057;51.438;-0.010;2023-04-25T12:47:06;13.80;99.90
41310;DHT22;27057;51.438;-0.010;2023-04-25T12:49:34;14.00;99.90
41310;DHT22;27057;51.438;-0.010;2023-04-25T12:52:02;13.50;99.70
41310;DHT22;27057;51.438;-0.010;2023-04-25T12:54:29;13.80;99.90
41310;DHT22;27057;51.438;-0.010;2023-04-25T12:56:58;14.50;99.90
41310;DHT22;27057;51.438;-0.010;2023-04-25T12:59:27;15.60;99.90
41310;DHT22;27057;51.438;-0.010;2023-04-25T13:01:55;16.10;99.90
41310;DHT22;27057;51.438;-0.010;2023-04-25T13:04:22;16.10;99.90
41310;DHT22;27057;51.438;-0.010;2023-04-25T13:06:50;15.90;99.90
41310;DHT22;27057;51.438;-0.010;2023-04-25T13:09:18;15.60;99.00
41310;DHT22;27057;51.438;-0.010;2023-04-25T13:14:13;14.90;99.10
41310;DHT22;27057;51.438;-0.010;2023-04-25T13:16:40;14.60;98.70
41310;DHT22;27057;51.438;-0.010;2023-04-25T13:19:08;14.50;99.90
41310;DHT22;27057;51.438;-0.010;2023-04-25T13:21:38;14.50;99.90
41310;DHT22;27057;51.438;-0.010;2023-04-25T13:24:06;14.70;99.90
41310;DHT22;27057;51.438;-0.010;2023-04-25T13:26:34;14.30;99.90
41310;DHT22;27057;51.438;-0.010;2023-04-25T13:29:01;14.30;99.90
41310;DHT22;27057;51.438;-0.010;2023-04-25T13:31:31;14.30;99.90
41310;DHT22;27057;51.438;-0.010;2023-04-25T13:33:58;14.60;98.40
41310;DHT22;27057;51.438;-0.010;2023-04-25T13:36:26;14.60;98.30
41310;DHT22;27057;51.438;-0.010;2023-04-25T13:38:55;14.70;99.90
41310;DHT22;27057;51.438;-0.010;2023-04-25T13:41:22;14.80;98.50
41310;DHT22;27057;51.438;-0.010;2023-04-25T13:43:50;15.10;99.60
41310;DHT22;27057;51.438;-0.010;2023-04-25T13:49:05;15.10;97.10
41310;DHT22;27057;51.438;-0.010;2023-04-25T13:51:40;16.40;98.90
41310;DHT22;27057;51.438;-0.010;2023-04-25T13:54:07;17.10;97.50
41310;DHT22;27057;51.438;-0.010;2023-04-25T13:56:35;17.70;96.60
41310;DHT22;27057;51.438;-0.010;2023-04-25T13:59:02;18.50;97.40
41310;DHT22;27057;51.438;-0.010;2023-04-25T14:01:30;18.60;96.90
41310;DHT22;27057;51.438;-0.010;2023-04-25T14:04:02;18.40;97.00
41310;DHT22;27057;51.438;-0.010;2023-04-25T14:06:32;18.10;95.00
41310;DHT22;27057;51.438;-0.010;2023-04-25T14:09:00;17.50;94.00
41310;DHT22;27057;51.438;-0.010;2023-04-25T14:11:31;16.80;93.30
41310;DHT22;27057;51.438;-0.010;2023-04-25T14:13:59;16.30;99.90
41310;DHT22;27057;51.438;-0.010;2023-04-25T14:16:26;15.90;95.20
41310;DHT22;27057;51.438;-0.010;2023-04-25T14:18:54;15.90;97.40
41310;DHT22;27057;51.438;-0.010;2023-04-25T14:21:22;17.20;98.00
41310;DHT22;27057;51.438;-0.010;2023-04-25T14:23:49;15.70;97.70
41310;DHT22;27057;51.438;-0.010;2023-04-25T14:26:17;15.90;98.00
41310;DHT22;27057;51.438;-0.010;2023-04-25T14:28:45;15.90;96.80
41310;DHT22;27057;51.438;-0.010;2023-04-25T14:31:13;16.40;97.00
41310;DHT22;27057;51.438;-0.010;2023-04-25T14:33:41;16.50;96.50
41310;DHT22;27057;51.438;-0.010;2023-04-25T14:36:10;16.40;96.60
41310;DHT22;27057;51.438;-0.010;2023-04-25T14:38:38;16.40;96.90
41310;DHT22;27057;51.438;-0.010;2023-04-25T14:41:06;16.20;94.90
41310;DHT22;27057;51.438;-0.010;2023-04-25T14:43:33;16.20;96.50
41310;DHT22;27057;51.438;-0.010;2023-04-25T14:46:03;16.00;96.90
41310;DHT22;27057;51.438;-0.010;2023-04-25T14:48:31;15.80;96.80
41310;DHT22;27057;51.438;-0.010;2023-04-25T14:50:59;15.90;96.90
41310;DHT22;27057;51.438;-0.010;2023-04-25T14:53:27;15.90;96.70
41310;DHT22;27057;51.438;-0.010;2023-04-25T14:55:55;16.40;96.20
41310;DHT22;27057;51.438;-0.010;2023-04-25T14:58:22;15.70;96.30
41310;DHT22;27057;51.438;-0.010;2023-04-25T15:00:50;15.70;96.00
41310;DHT22;27057;51.438;-0.010;2023-04-25T15:03:18;15.60;96.90
41310;DHT22;27057;51.438;-0.010;2023-04-25T15:05:46;15.70;96.00
41310;DHT22;27057;51.438;-0.010;2023-04-25T15:08:13;15.60;96.00
41310;DHT22;27057;51.438;-0.010;2023-04-25T15:10:40;16.50;96.90
41310;DHT22;27057;51.438;-0.010;2023-04-25T15:13:08;15.70;96.60
41310;DHT22;27057;51.438;-0.010;2023-04-25T15:15:37;15.90;96.10
41310;DHT22;27057;51.438;-0.010;2023-04-25T15:18:04;17.60;94.90
41310;DHT22;27057;51.438;-0.010;2023-04-25T15:20:32;17.10;94.60
41310;DHT22;27057;51.438;-0.010;2023-04-25T15:22:59;18.10;93.50
41310;DHT22;27057;51.438;-0.010;2023-04-25T15:25:30;18.50;92.40
41310;DHT22;27057;51.438;-0.010;2023-04-25T15:27:58;18.50;89.80
41310;DHT22;27057;51.438;-0.010;2023-04-25T15:30:27;18.10;93.00
41310;DHT22;27057;51.438;-0.010;2023-04-25T15:32:54;17.60;90.90
41310;DHT22;27057;51.438;-0.010;2023-04-25T15:35:22;17.20;92.50
41310;DHT22;27057;51.438;-0.010;2023-04-25T15:37:49;16.80;92.50
41310;DHT22;27057;51.438;-0.010;2023-04-25T15:40:17;16.50;93.80
41310;DHT22;27057;51.438;-0.010;2023-04-25T15:42:46;16.30;93.90
41310;DHT22;27057;51.438;-0.010;2023-04-25T15:45:14;16.00;93.70
41310;DHT22;27057;51.438;-0.010;2023-04-25T15:47:44;15.70;94.50
41310;DHT22;27057;51.438;-0.010;2023-04-25T15:50:12;15.60;93.30
41310;DHT22;27057;51.438;-0.010;2023-04-25T15:52:42;15.60;93.80
41310;DHT22;27057;51.438;-0.010;2023-04-25T15:55:10;15.50;94.10
41310;DHT22;27057;51.438;-0.010;2023-04-25T15:57:39;16.20;95.20
41310;DHT22;27057;51.438;-0.010;2023-04-25T16:00:08;15.40;93.80
41310;DHT22;27057;51.438;-0.010;2023-04-25T16:02:39;15.60;93.10
41310;DHT22;27057;51.438;-0.010;2023-04-25T16:05:08;16.60;93.30
41310;DHT22;27057;51.438;-0.010;2023-04-25T16:07:39;17.40;92.90
41310;DHT22;27057;51.438;-0.010;2023-04-25T16:10:08;17.40;91.10
41310;DHT22;27057;51.438;-0.010;2023-04-25T16:12:36;17.40;92.20
41310;DHT22;27057;51.438;-0.010;2023-04-25T16:15:03;17.50;92.60
41310;DHT22;27057;51.438;-0.010;2023-04-25T16:17:31;17.40;93.10
41310;DHT22;27057;51.438;-0.010;2023-04-25T16:19:59;17.30;92.40
41310;DHT22;27057;51.438;-0.010;2023-04-25T16:22:38;17.40;93.50
41310;DHT22;27057;51.438;-0.010;2023-04-25T16:25:06;17.30;93.30
41310;DHT22;27057;51.438;-0.010;2023-04-25T16:27:34;17.10;93.30
41310;DHT22;27057;51.438;-0.010;2023-04-25T16:30:05;16.80;93.50
41310;DHT22;27057;51.438;-0.010;2023-04-25T16:32:34;16.50;93.30
41310;DHT22;27057;51.438;-0.010;2023-04-25T16:35:02;17.00;93.60
41310;DHT22;27057;51.438;-0.010;2023-04-25T16:37:30;15.80;93.30